Terminal Aerodrome Forecast
Issued by NWS

Home | Current Version | Previous Version | Text Only | Print | Product List | Glossary On
Versions: 1 2 3 4 5 6 7 8 9 10 11 12 13 14 15
000
FTUS46 KSEW 260500
TAFBLI
TAF
KBLI 260536Z 2606/2706 25010G20KT P6SM -SHRA SCT006 BKN020 OVC030
      TEMPO 2606/2610 4SM -SHRA BR BKN006 BKN020 OVC030
     FM261200 21008KT P6SM -SHRA BKN015 OVC030
     FM261800 21008KT P6SM -SHRA SCT020 BKN040=

USA.gov is the U.S. government's official web portal to all federal, state and local government web resources and services.